Time;durP1;ratioP1;P1;durP2;ratioP2;P2;SDS_P1;SDS_P2;PMS_P1;PMS_P2;Temp;Humidity;BMP_temperature;BMP_pressure;BME280_temperature;BME280_humidity;BME280_pressure;Samples;Min_cycle;Max_cycle;Signal;HPM_P1;HPM_P2
2021/05/10 00:00:21;;;;;;;4.28;1.90;;;;;;;11.06;49.04;94567.94;5131403;27;20115;-70
2021/05/10 00:02:46;;;;;;;2.45;1.52;;;;;;;10.96;48.80;94579.59;5131285;27;20027;-70
2021/05/10 00:05:12;;;;;;;6.47;2.00;;;;;;;10.96;48.73;94567.03;5123054;27;20027;-70
2021/05/10 00:07:37;;;;;;;3.65;1.92;;;;;;;10.96;48.56;94569.69;5120410;27;20066;-70
2021/05/10 00:10:07;;;;;;;4.85;1.67;;;;;;;10.87;48.95;94570.69;5130781;27;20387;-71
2021/05/10 00:12:32;;;;;;;3.63;2.00;;;;;;;10.90;48.58;94570.91;5129169;27;20131;-71
2021/05/10 00:14:58;;;;;;;3.30;2.00;;;;;;;10.88;49.23;94574.94;5131205;27;20465;-71
2021/05/10 00:17:23;;;;;;;4.00;1.83;;;;;;;10.74;49.56;94583.72;5124014;27;20023;-71
2021/05/10 00:19:49;;;;;;;5.53;2.03;;;;;;;10.71;50.13;94572.88;5130617;27;20054;-71
2021/05/10 00:22:14;;;;;;;8.90;1.98;;;;;;;10.70;49.06;94572.06;5131091;27;20019;-71
2021/05/10 00:24:40;;;;;;;4.97;2.08;;;;;;;10.67;49.38;94571.91;5130999;27;20034;-71
2021/05/10 00:27:05;;;;;;;7.50;1.80;;;;;;;10.63;50.19;94577.03;5131207;27;20064;-71
2021/05/10 00:29:30;;;;;;;6.85;2.92;;;;;;;10.65;50.70;94572.19;5130986;27;20031;-71
2021/05/10 00:31:56;;;;;;;5.97;1.75;;;;;;;10.60;51.02;94567.75;5131078;27;20026;-71
2021/05/10 00:34:21;;;;;;;4.65;1.60;;;;;;;10.53;51.15;94578.00;5129235;27;20020;-71
2021/05/10 00:36:47;;;;;;;5.43;1.95;;;;;;;10.50;51.37;94583.94;5130780;27;20058;-71
2021/05/10 00:39:12;;;;;;;4.38;2.47;;;;;;;10.47;51.58;94567.72;5128169;27;20097;-71
2021/05/10 00:41:38;;;;;;;4.40;1.80;;;;;;;10.37;51.63;94569.47;5130871;27;20454;-71
2021/05/10 00:44:05;;;;;;;5.28;2.10;;;;;;;10.37;51.11;94574.03;5123672;27;20464;-71
2021/05/10 00:46:32;;;;;;;9.40;1.80;;;;;;;10.37;51.14;94558.03;5124903;27;20028;-71
2021/05/10 00:48:58;;;;;;;10.48;1.70;;;;;;;10.34;50.48;94569.28;5131737;27;20471;-71
2021/05/10 00:51:23;;;;;;;3.03;1.80;;;;;;;10.33;50.74;94567.69;5130980;27;20023;-71
2021/05/10 00:53:49;;;;;;;4.20;2.15;;;;;;;10.26;51.79;94562.72;5124822;27;20035;-71
2021/05/10 00:56:15;;;;;;;3.78;2.25;;;;;;;10.23;51.88;94558.75;5123979;28;20118;-70
2021/05/10 00:58:41;;;;;;;4.63;1.98;;;;;;;10.21;51.77;94565.47;5132168;27;20051;-70
2021/05/10 01:01:07;;;;;;;4.45;2.17;;;;;;;10.20;51.73;94558.56;5127709;27;20030;-71
2021/05/10 01:03:33;;;;;;;4.13;2.22;;;;;;;10.17;51.73;94553.81;5118209;27;20118;-71
2021/05/10 01:05:58;;;;;;;3.13;1.67;;;;;;;10.12;51.78;94561.91;5129892;28;20015;-70
2021/05/10 01:08:24;;;;;;;5.05;1.65;;;;;;;10.14;51.01;94552.53;5130344;28;20091;-71
2021/05/10 01:10:49;;;;;;;5.95;1.77;;;;;;;10.16;51.08;94561.03;5120258;27;20402;-70
2021/05/10 01:13:16;;;;;;;3.50;1.73;;;;;;;10.14;51.45;94557.88;5130020;28;20027;-70
2021/05/10 01:15:42;;;;;;;9.32;2.35;;;;;;;10.13;51.23;94556.28;5119178;27;20479;-71
2021/05/10 01:18:08;;;;;;;7.32;1.80;;;;;;;10.07;51.72;94559.31;5118347;28;20148;-70
2021/05/10 01:20:34;;;;;;;4.88;2.20;;;;;;;10.10;52.23;94548.09;5129866;28;20043;-71
2021/05/10 01:23:00;;;;;;;5.10;2.45;;;;;;;10.10;52.21;94543.56;5130367;27;20023;-70
2021/05/10 01:25:28;;;;;;;5.90;1.80;;;;;;;10.07;52.17;94549.44;5122192;27;20027;-71
2021/05/10 01:27:55;;;;;;;10.55;2.05;;;;;;;10.01;52.61;94545.28;5120746;28;20034;-70
2021/05/10 01:30:23;;;;;;;3.63;2.00;;;;;;;9.97;53.45;94545.09;5123993;27;20032;-70
2021/05/10 01:32:50;;;;;;;4.68;2.35;;;;;;;9.91;53.91;94548.94;5128933;28;20375;-70
2021/05/10 01:35:19;;;;;;;3.85;2.13;;;;;;;9.87;54.05;94552.47;5124352;28;20054;-71
2021/05/10 01:37:45;;;;;;;6.07;2.13;;;;;;;9.84;54.41;94551.97;5130031;27;20019;-70
2021/05/10 01:40:11;;;;;;;4.75;2.40;;;;;;;9.86;54.26;94550.88;5120818;27;20034;-70
2021/05/10 01:42:37;;;;;;;6.03;2.60;;;;;;;9.80;54.63;94547.50;5124838;28;20105;-70
2021/05/10 01:45:04;;;;;;;4.25;2.28;;;;;;;9.78;54.79;94549.66;5126462;27;20059;-71
2021/05/10 01:47:29;;;;;;;6.32;2.15;;;;;;;9.71;54.82;94550.06;5126634;28;20113;-70
2021/05/10 01:49:55;;;;;;;6.82;2.20;;;;;;;9.71;54.96;94547.38;5120890;28;20553;-70
2021/05/10 01:52:20;;;;;;;5.10;2.58;;;;;;;9.69;55.34;94543.41;5117958;28;20030;-70
2021/05/10 01:54:50;;;;;;;5.35;2.10;;;;;;;9.57;55.86;94541.22;5113612;28;20031;-70
2021/05/10 01:57:18;;;;;;;4.90;2.55;;;;;;;9.51;55.86;94537.06;5126141;28;20031;-70
2021/05/10 01:59:44;;;;;;;3.78;2.20;;;;;;;9.47;56.23;94541.38;5126726;27;20102;-70
2021/05/10 02:02:09;;;;;;;3.95;2.22;;;;;;;9.42;56.48;94539.56;5129975;27;20105;-71
2021/05/10 02:05:06;;;;;;;4.22;2.30;;;;;;;9.44;56.47;94542.72;5127845;27;20031;-71
2021/05/10 02:07:32;;;;;;;6.30;2.40;;;;;;;9.42;56.09;94550.19;5125912;27;20118;-70
2021/05/10 02:09:58;;;;;;;6.53;2.75;;;;;;;9.35;56.17;94549.78;5119892;27;20023;-70
2021/05/10 02:12:23;;;;;;;5.63;2.42;;;;;;;9.33;56.41;94550.06;5124272;27;20049;-70
2021/05/10 02:14:49;;;;;;;6.00;2.40;;;;;;;9.31;56.98;94546.91;5131141;27;20019;-71
2021/05/10 02:17:14;;;;;;;3.35;2.08;;;;;;;9.31;57.03;94543.47;5118735;27;20019;-71
2021/05/10 02:19:40;;;;;;;7.13;2.58;;;;;;;9.31;57.10;94546.13;5130587;27;20087;-71
2021/05/10 02:22:05;;;;;;;15.82;3.33;;;;;;;9.27;57.22;94553.09;5123131;27;20034;-70
2021/05/10 02:24:38;;;;;;;6.95;3.13;;;;;;;9.18;57.32;94558.25;5130549;27;20410;-70
2021/05/10 02:27:05;;;;;;;6.45;2.47;;;;;;;9.20;57.45;94553.47;5132385;27;20023;-71
2021/05/10 02:29:31;;;;;;;4.70;2.55;;;;;;;9.19;57.46;94549.19;5132727;27;20167;-71
2021/05/10 02:31:56;;;;;;;5.18;2.88;;;;;;;9.09;57.69;94552.78;5130851;27;20023;-71
2021/05/10 02:34:22;;;;;;;6.07;3.00;;;;;;;9.08;57.57;94556.53;5132575;27;20030;-71
2021/05/10 02:36:47;;;;;;;6.53;2.53;;;;;;;9.07;57.79;94559.47;5131116;27;20050;-70
2021/05/10 02:39:12;;;;;;;6.72;2.97;;;;;;;9.03;57.79;94553.94;5125719;27;20113;-70
2021/05/10 02:41:38;;;;;;;6.18;2.97;;;;;;;8.97;57.65;94561.16;5116903;27;20034;-71
2021/05/10 02:44:03;;;;;;;8.48;3.08;;;;;;;8.95;58.24;94559.88;5120917;27;20138;-71
2021/05/10 02:46:29;;;;;;;6.40;2.92;;;;;;;8.98;58.17;94559.31;5132373;27;20031;-70
2021/05/10 02:48:54;;;;;;;7.82;2.60;;;;;;;8.99;58.35;94555.56;5126936;27;20042;-70
2021/05/10 02:51:20;;;;;;;4.05;2.33;;;;;;;8.97;57.45;94560.38;5131330;27;20046;-70
2021/05/10 02:53:45;;;;;;;6.20;2.55;;;;;;;8.88;57.70;94560.25;5130914;27;20022;-70
2021/05/10 02:56:11;;;;;;;4.28;2.55;;;;;;;8.83;57.69;94554.97;5120557;27;20028;-71
2021/05/10 02:58:36;;;;;;;4.72;2.40;;;;;;;8.83;57.77;94558.44;5131897;27;20035;-71
2021/05/10 03:01:01;;;;;;;6.32;2.63;;;;;;;8.81;58.10;94567.75;5132685;27;20030;-71
2021/05/10 03:03:27;;;;;;;8.13;3.08;;;;;;;8.77;58.70;94566.72;5131434;27;20019;-71
2021/05/10 03:05:52;;;;;;;3.70;2.20;;;;;;;8.78;58.85;94566.47;5130372;27;20109;-70
2021/05/10 03:08:18;;;;;;;4.43;3.10;;;;;;;8.78;59.04;94558.47;5129411;27;20023;-70
2021/05/10 03:10:43;;;;;;;5.65;3.40;;;;;;;8.73;59.29;94569.19;5122958;27;20138;-70
2021/05/10 03:13:09;;;;;;;4.95;2.60;;;;;;;8.75;59.36;94564.38;5115757;27;20020;-71
2021/05/10 03:15:34;;;;;;;4.18;2.55;;;;;;;8.76;59.34;94570.47;5133808;27;20457;-71
2021/05/10 03:17:59;;;;;;;6.75;2.55;;;;;;;8.72;59.18;94574.78;5132438;27;20062;-71
2021/05/10 03:20:25;;;;;;;6.25;3.15;;;;;;;8.68;59.50;94585.19;5124716;27;20471;-71
2021/05/10 03:22:54;;;;;;;5.97;2.88;;;;;;;8.70;59.17;94579.59;5117200;27;20036;-70
2021/05/10 03:25:23;;;;;;;5.00;2.97;;;;;;;8.67;59.43;94578.31;5131853;27;20023;-70
2021/05/10 03:27:50;;;;;;;7.72;3.15;;;;;;;8.70;59.48;94571.63;5130508;27;20105;-71
2021/05/10 03:30:21;;;;;;;7.90;2.88;;;;;;;8.67;59.70;94566.84;5130491;27;20030;-70
2021/05/10 03:32:52;;;;;;;8.35;3.65;;;;;;;8.70;59.77;94571.63;5131801;27;20023;-70
2021/05/10 03:35:20;;;;;;;7.65;3.38;;;;;;;8.67;59.84;94569.50;5131910;27;20058;-70
2021/05/10 03:37:45;;;;;;;11.95;4.18;;;;;;;8.67;60.35;94574.81;5122032;27;20496;-70
2021/05/10 03:40:13;;;;;;;7.47;3.90;;;;;;;8.70;60.20;94583.03;5127097;27;20122;-70
2021/05/10 03:42:40;;;;;;;7.22;4.38;;;;;;;8.72;60.21;94583.53;5119411;27;20083;-71
2021/05/10 03:45:07;;;;;;;6.85;3.60;;;;;;;8.77;59.90;94588.00;5121448;27;20110;-70
2021/05/10 03:47:38;;;;;;;6.60;3.92;;;;;;;8.79;59.76;94585.84;5125661;27;20015;-72
2021/05/10 03:50:07;;;;;;;5.70;3.20;;;;;;;8.80;60.06;94587.44;5130022;27;20023;-70
2021/05/10 03:52:33;;;;;;;8.98;3.90;;;;;;;8.82;59.99;94591.41;5125163;27;20070;-71
2021/05/10 03:54:59;;;;;;;8.70;4.03;;;;;;;8.87;60.22;94587.88;5120771;27;20491;-70
2021/05/10 03:57:24;;;;;;;11.50;3.72;;;;;;;8.92;60.12;94595.81;5129502;27;20019;-71
2021/05/10 03:59:49;;;;;;;7.30;3.80;;;;;;;9.02;59.37;94595.69;5129140;27;20030;-71
2021/05/10 04:02:15;;;;;;;6.13;3.83;;;;;;;9.03;59.55;94588.50;5127737;27;20038;-71
2021/05/10 04:04:47;;;;;;;6.93;3.17;;;;;;;9.10;59.00;94591.63;5119070;27;20031;-71
2021/05/10 04:07:41;;;;;;;8.43;3.80;;;;;;;9.15;58.33;94596.84;5129391;27;20370;-70
2021/05/10 04:15:26;;;;;;;4.57;2.83;;;;;;;9.35;57.21;94606.44;5125255;27;20064;-70
2021/05/10 04:17:51;;;;;;;6.93;3.30;;;;;;;9.39;57.23;94610.09;5123679;27;20109;-70
2021/05/10 04:20:17;;;;;;;9.48;3.50;;;;;;;9.41;57.42;94597.31;5130779;27;20031;-70
2021/05/10 04:22:42;;;;;;;6.07;3.78;;;;;;;9.48;57.31;94602.25;5128802;27;20034;-70
2021/05/10 04:25:09;;;;;;;11.32;7.22;;;;;;;9.50;57.08;94607.31;5112827;27;20497;-70
2021/05/10 04:27:34;;;;;;;14.40;4.10;;;;;;;9.55;57.08;94608.03;5124539;27;20050;-70
2021/05/10 04:30:00;;;;;;;10.63;4.82;;;;;;;9.53;57.28;94607.53;5121416;27;20019;-70
2021/05/10 04:32:25;;;;;;;11.25;4.20;;;;;;;9.60;57.06;94620.47;5115824;27;20023;-70
2021/05/10 04:34:50;;;;;;;7.88;3.50;;;;;;;9.56;56.89;94614.16;5121538;27;20016;-70
2021/05/10 04:37:16;;;;;;;13.30;4.20;;;;;;;9.44;57.44;94618.03;5122422;27;20406;-72
2021/05/10 04:39:41;;;;;;;9.43;3.75;;;;;;;9.49;57.30;94613.72;5130209;27;20413;-72
2021/05/10 04:42:07;;;;;;;14.55;3.70;;;;;;;9.41;57.34;94617.81;5126200;27;20027;-72
2021/05/10 04:44:32;;;;;;;6.70;3.78;;;;;;;9.34;57.32;94618.16;5128213;27;20470;-72
2021/05/10 04:46:57;;;;;;;14.30;5.07;;;;;;;9.37;57.62;94622.91;5109747;28;20050;-72
2021/05/10 04:49:23;;;;;;;5.13;3.40;;;;;;;9.36;57.39;94621.34;5128060;27;20491;-72
2021/05/10 04:51:48;;;;;;;13.68;3.80;;;;;;;9.44;57.76;94617.22;5130069;27;20047;-72
2021/05/10 04:54:13;;;;;;;9.60;3.85;;;;;;;9.54;57.88;94627.72;5129979;27;20016;-72
2021/05/10 04:56:39;;;;;;;13.70;4.50;;;;;;;9.60;57.39;94631.91;5129996;27;20035;-72
2021/05/10 04:59:04;;;;;;;7.32;3.58;;;;;;;9.67;57.67;94620.09;5129698;27;20030;-72
2021/05/10 05:01:29;;;;;;;7.93;3.47;;;;;;;9.71;57.65;94627.25;5129814;27;20080;-72
2021/05/10 05:03:55;;;;;;;6.80;3.60;;;;;;;9.86;57.01;94618.25;5129377;27;20635;-72
2021/05/10 05:06:20;;;;;;;8.43;4.07;;;;;;;9.93;57.43;94623.19;5129667;27;20019;-72
2021/05/10 05:08:46;;;;;;;13.68;4.00;;;;;;;9.96;56.91;94623.41;5128662;27;20075;-72
2021/05/10 05:11:11;;;;;;;5.65;3.78;;;;;;;10.08;56.52;94625.63;5125955;27;20038;-72
2021/05/10 05:13:37;;;;;;;9.85;3.60;;;;;;;10.20;55.93;94628.63;5127029;27;20034;-72
2021/05/10 05:16:05;;;;;;;6.47;3.72;;;;;;;10.30;55.79;94626.91;5130024;27;20015;-72
2021/05/10 05:18:31;;;;;;;17.60;3.63;;;;;;;10.37;55.21;94617.44;5129670;27;20495;-72
2021/05/10 05:20:56;;;;;;;16.50;3.83;;;;;;;10.50;55.01;94620.44;5128406;27;20043;-72
2021/05/10 05:23:26;;;;;;;7.80;4.03;;;;;;;10.39;54.87;94615.28;5129706;27;20023;-72
2021/05/10 05:25:55;;;;;;;15.98;3.40;;;;;;;10.52;54.32;94620.94;5129934;27;20027;-73
2021/05/10 05:28:20;;;;;;;9.10;3.63;;;;;;;10.58;54.05;94623.22;5127026;28;20043;-73
2021/05/10 05:30:46;;;;;;;12.95;3.38;;;;;;;10.61;54.19;94614.63;5128743;27;20095;-72
2021/05/10 05:33:12;;;;;;;6.55;3.42;;;;;;;10.76;54.16;94623.44;5129737;27;20027;-72
2021/05/10 05:35:37;;;;;;;15.73;3.05;;;;;;;10.89;54.02;94620.00;5132230;27;20042;-72
2021/05/10 05:38:04;;;;;;;11.02;3.25;;;;;;;11.09;53.75;94620.69;5118251;27;20111;-72
2021/05/10 05:40:29;;;;;;;10.27;2.90;;;;;;;11.26;52.72;94623.53;5130893;27;20045;-72
2021/05/10 05:42:55;;;;;;;6.45;2.67;;;;;;;11.41;51.83;94622.44;5133505;27;20027;-72
2021/05/10 05:45:21;;;;;;;23.08;3.13;;;;;;;11.53;51.90;94627.25;5133587;27;20113;-73
2021/05/10 05:47:46;;;;;;;15.68;3.00;;;;;;;11.55;51.78;94628.53;5130080;27;20410;-72
2021/05/10 05:50:12;;;;;;;10.80;3.90;;;;;;;11.55;50.78;94622.41;5112962;28;20110;-73
2021/05/10 05:52:38;;;;;;;6.57;3.25;;;;;;;11.53;51.51;94629.94;5112578;28;20042;-73
2021/05/10 05:55:04;;;;;;;9.07;2.97;;;;;;;11.62;51.49;94625.44;5112551;28;20019;-72
2021/05/10 05:57:29;;;;;;;9.60;2.35;;;;;;;11.76;50.92;94628.88;5112373;27;20027;-73
2021/05/10 05:59:55;;;;;;;5.15;2.53;;;;;;;11.88;50.52;94630.22;5112194;28;20024;-73
2021/05/10 06:02:20;;;;;;;5.20;2.05;;;;;;;11.80;50.55;94619.16;5112834;28;20371;-73
2021/05/10 06:04:46;;;;;;;10.95;2.47;;;;;;;11.83;50.58;94631.16;5112498;27;20038;-73
2021/05/10 06:07:11;;;;;;;7.75;2.42;;;;;;;11.92;50.61;94628.56;5112557;27;20089;-73
2021/05/10 06:09:36;;;;;;;16.67;2.47;;;;;;;12.10;50.23;94627.59;5128760;27;20119;-73
2021/05/10 06:12:05;;;;;;;13.30;2.65;;;;;;;12.21;49.68;94622.78;5112052;28;20027;-73
2021/05/10 06:14:31;;;;;;;15.30;2.80;;;;;;;12.22;49.69;94611.81;5112292;28;20007;-76
2021/05/10 06:16:56;;;;;;;5.60;2.58;;;;;;;12.40;51.23;94615.38;5115046;27;20046;-73
2021/05/10 06:19:22;;;;;;;6.78;2.60;;;;;;;12.53;50.62;94615.63;5122590;27;20043;-73
2021/05/10 06:21:47;;;;;;;11.05;2.33;;;;;;;12.68;50.39;94617.09;5131461;27;20482;-73
2021/05/10 06:24:13;;;;;;;12.88;3.03;;;;;;;12.80;49.93;94610.09;5131146;27;20031;-73
2021/05/10 06:26:40;;;;;;;10.27;2.80;;;;;;;12.96;49.41;94605.09;5131090;27;20037;-73
2021/05/10 06:29:05;;;;;;;8.85;2.85;;;;;;;13.08;49.37;94599.16;5132435;27;20106;-74
2021/05/10 06:31:31;;;;;;;6.38;2.45;;;;;;;13.21;48.88;94600.94;5130533;27;20029;-73
2021/05/10 06:33:56;;;;;;;4.82;2.25;;;;;;;13.35;48.27;94610.75;5132627;27;20459;-74
2021/05/10 06:36:22;;;;;;;13.05;2.63;;;;;;;13.30;47.58;94597.53;5131213;27;20027;-74
2021/05/10 06:38:48;;;;;;;9.55;2.60;;;;;;;13.40;47.31;94599.91;5127578;27;20114;-73
2021/05/10 06:41:13;;;;;;;8.88;2.75;;;;;;;13.40;47.73;94605.25;5111584;28;20085;-74
2021/05/10 06:43:38;;;;;;;3.55;2.13;;;;;;;13.54;48.03;94597.09;5111458;28;20150;-73
2021/05/10 06:46:04;;;;;;;6.63;1.98;;;;;;;13.65;47.60;94601.03;5110707;28;20387;-73
2021/05/10 06:48:31;;;;;;;14.88;2.45;;;;;;;13.79;47.30;94592.88;5111458;28;20030;-74
2021/05/10 06:50:57;;;;;;;6.05;2.70;;;;;;;13.90;46.84;94586.09;5111778;27;20039;-74
2021/05/10 06:53:23;;;;;;;10.45;2.42;;;;;;;13.99;46.43;94594.13;5130541;27;20452;-73
2021/05/10 06:55:52;;;;;;;11.23;2.05;;;;;;;14.09;46.54;94584.97;5112978;27;20087;-73
2021/05/10 06:58:18;;;;;;;18.15;2.83;;;;;;;14.04;45.78;94581.34;5112600;28;20123;-76
2021/05/10 07:00:44;;;;;;;12.30;2.17;;;;;;;13.96;45.92;94578.66;5129620;27;20027;-76
2021/05/10 07:03:10;;;;;;;4.60;2.20;;;;;;;13.96;46.13;94575.97;5119120;27;20049;-75
2021/05/10 07:05:35;;;;;;;8.43;1.80;;;;;;;14.09;45.86;94585.75;5127936;27;20046;-76
2021/05/10 07:08:11;;;;;;;5.80;2.00;;;;;;;14.11;45.81;94580.09;5128986;27;20562;-76
2021/05/10 07:10:37;;;;;;;5.15;2.35;;;;;;;14.20;46.08;94581.63;5127738;27;20034;-77
2021/05/10 07:13:03;;;;;;;3.92;1.88;;;;;;;14.34;46.09;94576.09;5132284;27;20023;-75
2021/05/10 07:15:28;;;;;;;11.95;2.63;;;;;;;14.47;45.82;94587.75;5131342;27;20079;-76
2021/05/10 07:18:04;;;;;;;4.95;2.03;;;;;;;14.56;45.35;94580.50;5112979;27;20027;-77
2021/05/10 07:20:30;;;;;;;8.82;2.10;;;;;;;14.66;44.53;94584.72;5112212;28;20096;-76
2021/05/10 07:22:55;;;;;;;9.13;2.15;;;;;;;14.76;43.92;94575.53;5127610;27;20030;-75
2021/05/10 07:25:22;;;;;;;4.97;2.22;;;;;;;14.72;43.98;94580.75;5127599;27;20019;-75
2021/05/10 07:27:47;;;;;;;4.30;2.00;;;;;;;14.76;43.97;94576.31;5128202;27;20386;-75
2021/05/10 07:30:13;;;;;;;3.58;1.65;;;;;;;14.83;43.94;94575.81;5132224;27;20079;-76
2021/05/10 07:32:39;;;;;;;6.13;1.92;;;;;;;14.90;43.57;94580.66;5131045;27;20026;-76
2021/05/10 07:35:04;;;;;;;6.07;2.05;;;;;;;14.91;43.57;94583.03;5112161;27;20016;-76
2021/05/10 07:37:29;;;;;;;2.75;1.60;;;;;;;15.04;44.03;94571.31;5130607;27;20027;-75
2021/05/10 07:39:55;;;;;;;3.50;1.85;;;;;;;15.17;43.51;94582.16;5132180;27;20406;-75
2021/05/10 07:42:20;;;;;;;6.60;1.85;;;;;;;15.26;43.95;94574.81;5130459;27;20037;-76
2021/05/10 07:44:46;;;;;;;5.43;2.28;;;;;;;15.40;43.37;94586.09;5130669;27;20482;-76
2021/05/10 07:47:11;;;;;;;8.20;1.98;;;;;;;15.43;41.81;94572.03;5121439;27;20026;-77
2021/05/10 07:49:36;;;;;;;16.48;2.40;;;;;;;15.50;41.54;94576.09;5111574;28;20099;-76
2021/05/10 07:52:02;;;;;;;7.13;1.70;;;;;;;15.49;41.07;94571.81;5111229;28;20019;-76
2021/05/10 07:54:27;;;;;;;14.63;2.15;;;;;;;15.47;41.25;94574.06;5127182;27;20011;-76
2021/05/10 07:56:54;;;;;;;6.03;1.90;;;;;;;15.50;41.79;94571.50;5111403;28;20019;-76
2021/05/10 07:59:20;;;;;;;8.68;1.90;;;;;;;15.51;41.44;94561.53;5127910;27;20038;-76
2021/05/10 08:01:47;;;;;;;7.65;1.70;;;;;;;15.56;41.59;94577.47;5130478;27;20511;-76
2021/05/10 08:04:12;;;;;;;4.78;1.83;;;;;;;15.54;40.38;94569.75;5112288;27;20391;-76
2021/05/10 08:06:38;;;;;;;4.53;1.85;;;;;;;15.56;40.31;94561.38;5126612;27;20088;-77
2021/05/10 08:09:05;;;;;;;5.93;1.80;;;;;;;15.51;40.50;94567.72;5127881;27;20019;-77
2021/05/10 08:11:31;;;;;;;6.53;1.92;;;;;;;15.61;40.93;94566.53;5128454;27;20019;-77
2021/05/10 08:13:57;;;;;;;4.97;2.45;;;;;;;15.75;41.36;94567.13;5126331;27;20034;-77
2021/05/10 08:16:22;;;;;;;6.75;2.53;;;;;;;15.86;41.29;94562.13;5131131;27;20022;-76
2021/05/10 08:18:48;;;;;;;8.00;1.85;;;;;;;15.99;40.96;94566.41;5129277;27;20015;-76
2021/05/10 08:21:13;;;;;;;5.15;1.80;;;;;;;16.14;40.92;94554.28;5110369;28;20036;-76
2021/05/10 08:23:38;;;;;;;7.38;1.80;;;;;;;16.27;40.42;94546.25;5116354;27;20102;-76
2021/05/10 08:26:04;;;;;;;4.50;1.85;;;;;;;16.27;40.13;94546.25;5122171;27;20027;-76
2021/05/10 08:28:31;;;;;;;8.20;1.83;;;;;;;16.31;39.22;94542.56;5110647;28;20422;-75
2021/05/10 08:30:56;;;;;;;4.55;1.92;;;;;;;16.41;39.13;94539.44;5127824;27;20030;-76
2021/05/10 08:33:22;;;;;;;11.90;1.80;;;;;;;16.51;39.56;94532.06;5127716;27;20023;-76
2021/05/10 08:35:48;;;;;;;7.90;2.00;;;;;;;16.65;39.43;94527.94;5126017;27;20162;-76
2021/05/10 08:38:13;;;;;;;5.90;1.52;;;;;;;16.76;39.44;94530.19;5131023;27;20380;-76
2021/05/10 08:40:39;;;;;;;11.48;1.65;;;;;;;16.79;38.23;94527.63;5130729;27;20460;-76
2021/05/10 08:43:19;;;;;;;12.35;1.83;;;;;;;16.89;38.59;94521.00;5130937;27;20034;-76
2021/05/10 08:45:47;;;;;;;7.13;1.77;;;;;;;16.97;38.35;94520.13;5129196;27;20027;-76
2021/05/10 08:48:12;;;;;;;10.20;1.50;;;;;;;16.96;37.77;94515.09;5126632;27;20027;-76
2021/05/10 08:50:38;;;;;;;5.97;1.40;;;;;;;16.88;37.38;94499.84;5111441;27;20502;-76
2021/05/10 08:53:04;;;;;;;6.55;1.83;;;;;;;16.91;38.04;94510.69;5110254;28;20038;-76
2021/05/10 08:55:30;;;;;;;3.65;1.70;;;;;;;17.09;37.53;94502.41;5110086;28;20103;-76
2021/05/10 08:57:55;;;;;;;13.95;2.17;;;;;;;17.22;38.20;94510.13;5110049;28;20041;-77
2021/05/10 09:00:22;;;;;;;3.17;1.33;;;;;;;17.35;37.36;94494.72;5125647;28;20023;-76
2021/05/10 09:02:48;;;;;;;2.90;1.30;;;;;;;17.37;37.28;94497.84;5109626;28;20039;-76
2021/05/10 09:05:20;;;;;;;7.75;2.03;;;;;;;17.51;38.27;94494.78;5125728;28;20031;-77
2021/05/10 09:08:07;;;;;;;5.80;1.90;;;;;;;17.65;37.05;94499.81;5127890;27;20118;-76
2021/05/10 09:10:33;;;;;;;6.50;1.50;;;;;;;17.70;37.02;94493.38;5133448;27;20441;-77
2021/05/10 09:12:58;;;;;;;7.25;1.52;;;;;;;17.83;37.04;94486.88;5134975;27;20019;-75
2021/05/10 09:15:32;;;;;;;12.75;1.50;;;;;;;17.92;36.10;94486.72;5133200;27;20019;-77
2021/05/10 09:18:09;;;;;;;3.08;1.52;;;;;;;18.00;36.39;94483.06;5131166;27;20027;-77
2021/05/10 09:20:37;;;;;;;7.05;1.38;;;;;;;17.80;36.36;94476.72;5131451;27;20046;-77
2021/05/10 09:23:08;;;;;;;8.20;1.35;;;;;;;17.99;36.46;94478.78;5134478;27;20071;-76
2021/05/10 09:25:35;;;;;;;5.28;1.63;;;;;;;18.13;36.14;94476.47;5134567;27;20015;-77
2021/05/10 09:28:16;;;;;;;5.22;1.50;;;;;;;18.14;35.95;94471.88;5134264;27;20031;-78
2021/05/10 09:30:53;;;;;;;2.97;1.30;;;;;;;18.20;35.68;94471.28;5134500;27;20015;-77
2021/05/10 09:33:27;;;;;;;7.13;1.67;;;;;;;18.36;36.12;94462.41;5134268;27;20055;-79
2021/05/10 09:35:58;;;;;;;15.00;1.50;;;;;;;18.50;37.00;94457.38;5129582;27;20027;-77
2021/05/10 09:38:25;;;;;;;5.45;1.50;;;;;;;18.68;35.99;94459.72;5124246;27;20350;-77
2021/05/10 09:41:02;;;;;;;5.22;1.48;;;;;;;18.84;36.29;94457.81;5132923;27;20023;-78
2021/05/10 09:43:39;;;;;;;7.03;1.70;;;;;;;18.97;35.88;94456.56;5132817;27;20416;-78
2021/05/10 09:46:07;;;;;;;1.85;1.13;;;;;;;19.12;35.29;94456.88;5133927;27;20087;-79
2021/05/10 09:48:36;;;;;;;3.85;1.65;;;;;;;19.20;34.89;94448.56;5129757;27;20023;-78
2021/05/10 09:51:05;;;;;;;4.10;1.40;;;;;;;19.31;34.68;94451.50;5133592;27;20049;-78
2021/05/10 09:53:30;;;;;;;5.03;1.63;;;;;;;19.45;34.88;94440.97;5126071;27;20028;-78
2021/05/10 09:55:57;;;;;;;4.88;1.50;;;;;;;19.54;34.81;94442.69;5128741;27;20169;-78
2021/05/10 09:58:36;;;;;;;3.53;1.55;;;;;;;19.64;34.60;94442.94;5125607;27;20023;-78
2021/05/10 10:01:03;;;;;;;3.40;1.02;;;;;;;19.75;33.51;94439.69;5132122;27;20019;-77
2021/05/10 10:03:30;;;;;;;2.88;1.42;;;;;;;19.83;33.96;94428.63;5132625;27;20030;-77
2021/05/10 10:05:59;;;;;;;4.60;1.40;;;;;;;19.88;33.53;94432.19;5132549;27;20410;-78
2021/05/10 10:08:24;;;;;;;3.28;1.17;;;;;;;20.00;33.53;94430.09;5129563;27;20037;-77
2021/05/10 10:10:50;;;;;;;6.43;1.40;;;;;;;20.14;34.07;94428.78;5131719;27;20106;-77
2021/05/10 10:13:17;;;;;;;4.45;1.55;;;;;;;20.27;33.17;94426.69;5133411;27;20034;-78
2021/05/10 10:15:44;;;;;;;5.82;1.75;;;;;;;20.39;32.70;94429.22;5132477;27;20072;-78
2021/05/10 10:18:10;;;;;;;6.53;1.63;;;;;;;20.37;32.23;94415.25;5113574;27;20024;-78
2021/05/10 10:20:38;;;;;;;5.70;1.58;;;;;;;20.33;32.09;94426.00;5127347;27;20046;-77
2021/05/10 10:23:06;;;;;;;8.15;1.75;;;;;;;20.35;32.99;94426.47;5132488;27;20023;-78
2021/05/10 10:25:32;;;;;;;5.78;1.40;;;;;;;20.45;32.61;94425.06;5129405;27;20026;-78
2021/05/10 10:27:59;;;;;;;2.20;1.25;;;;;;;20.60;32.36;94424.19;5130335;27;20451;-78
2021/05/10 10:30:25;;;;;;;8.35;1.60;;;;;;;20.72;32.13;94409.66;5132103;27;20031;-78
2021/05/10 10:32:51;;;;;;;3.63;1.20;;;;;;;20.88;32.00;94412.19;5132059;27;20050;-78
2021/05/10 10:35:20;;;;;;;6.50;1.45;;;;;;;21.00;31.93;94417.44;5131751;27;20114;-76
2021/05/10 10:37:46;;;;;;;16.23;1.38;;;;;;;21.11;32.01;94414.09;5132933;27;20502;-77
2021/05/10 10:40:15;;;;;;;7.80;1.27;;;;;;;21.23;31.82;94411.94;5133004;27;20026;-77
2021/05/10 10:42:41;;;;;;;9.32;2.58;;;;;;;21.36;31.66;94407.06;5131598;27;20027;-77
2021/05/10 10:45:07;;;;;;;4.00;1.40;;;;;;;21.51;31.13;94404.53;5117774;27;20091;-76
2021/05/10 10:47:44;;;;;;;8.13;1.45;;;;;;;21.59;30.73;94396.13;5123670;27;20019;-77
2021/05/10 10:50:15;;;;;;;8.88;1.52;;;;;;;21.73;31.08;94400.16;5131505;27;20019;-76
2021/05/10 10:52:59;;;;;;;2.42;1.40;;;;;;;21.80;30.32;94390.16;5131371;27;20080;-77
2021/05/10 10:55:27;;;;;;;5.07;1.50;;;;;;;21.94;30.90;94394.16;5131260;27;20031;-78
2021/05/10 10:58:13;;;;;;;4.45;1.73;;;;;;;21.96;30.23;94391.84;5131743;27;20019;-79
2021/05/10 11:01:07;;;;;;;5.35;1.45;;;;;;;22.10;30.00;94381.13;5127845;27;20081;-80
2021/05/10 11:03:33;;;;;;;7.75;1.33;;;;;;;22.20;29.76;94385.09;5120064;27;20027;-78
2021/05/10 11:06:00;;;;;;;4.47;1.88;;;;;;;22.32;30.06;94384.09;5132758;27;20469;-78
2021/05/10 11:08:48;;;;;;;8.50;1.38;;;;;;;22.40;29.41;94381.03;5131440;27;20486;-78
2021/05/10 11:11:33;;;;;;;6.97;1.40;;;;;;;22.49;29.11;94367.16;5132622;27;20022;-78
2021/05/10 11:13:59;;;;;;;3.53;1.33;;;;;;;22.54;29.14;94366.78;5132430;27;20070;-78
2021/05/10 11:16:46;;;;;;;5.13;1.60;;;;;;;22.58;29.23;94364.13;5131120;27;20030;-79
2021/05/10 11:19:32;;;;;;;5.93;1.40;;;;;;;22.64;29.42;94370.75;5130975;27;20027;-79
2021/05/10 11:21:59;;;;;;;9.68;1.40;;;;;;;22.79;29.35;94360.75;5128789;27;20051;-78
2021/05/10 11:24:28;;;;;;;6.00;1.50;;;;;;;22.79;28.23;94352.59;5127484;27;20041;-78
2021/05/10 11:26:56;;;;;;;3.25;1.40;;;;;;;22.91;28.87;94357.72;5127350;27;20027;-78
2021/05/10 11:29:24;;;;;;;5.88;1.63;;;;;;;22.88;28.90;94349.53;5128329;27;20482;-78
2021/05/10 11:31:50;;;;;;;5.80;1.40;;;;;;;22.93;27.90;94352.69;5131892;27;20019;-77
2021/05/10 11:34:28;;;;;;;7.47;1.83;;;;;;;22.96;28.36;94348.41;5130955;27;20034;-78
2021/05/10 11:36:55;;;;;;;4.43;1.77;;;;;;;23.05;27.70;94343.47;5112803;27;20035;-77
2021/05/10 11:39:23;;;;;;;10.80;1.65;;;;;;;23.21;27.90;94340.44;5127439;27;20022;-78